PILOTS ONLINE: 418    ATC ONLINE: 68

Location

IATA YSK
City Sanikiluaq
Country  Canada
Latitude 56° 32' 16" N
Longitude 79° 14' 48" W
Elevation 104 ft
Type Medium Airport

Weather

METAR
2014/07/14 15:00
CYSK 141500Z 03021G32KT 15SM FEW020 BKN200 07/07 A2963 RMK SC2CS3 SLP036
TAF
No TAF available

Runways

09/27 3800 ft / 0 ft

Outbound flights

Inbound flights


Spotted incorrect airport information? Please login with your VATSIM ID.